»·PEaware :: SWA114 KSNA-KSJC

SWA114 :: KSNA-KSJC

FLIGHT INFORMATION

Flight Status: Arrived
Operator:
Southwest Airlines
More flights by this operator :: More flights under this callsign
Pilot: Steve F. (26981)
Aircraft: BOEING 737-800
(B738)
More flights by this aircraft type
Origin: KSNA John Wayne-Orange Co
United States
Destination: KSJC Mineta San Jose Intl
United States
More flights between these airports :: More routes between these airports
Route: HHERO3 IKAYE TESEA SCTRR TROXX SILCN4
File this flight plan on PilotEdge
Remarks:
Altitude:
(Current/Filed)
36,000ft
Speed:
(Current/Filed)
430kts
Departed: 12-Feb-20 10:17 AM
Arrived: 12-Feb-20 11:15 AM
Distance/Time
Traveled:
297nm/0:58
Distance/Time
To Go:
Arrived

Flight Plot

Page will automatically refresh every two minutes.

Flight plan parsing failed; only flown route is shown


Map Options




Map Legend


Flown Route
Filed Route
Departure Airport
Arrival Airport
Navaid (VOR, NDB)
Fix

Horizontal Profiles

Position Reports

Time Latitude Longitude Heading Altitude Ground
Speed
12-Feb-20 10:03 33.678350 -117.862642 120 64ft 0kts
12-Feb-20 10:04 33.678350 -117.862642 120 64ft 0kts
12-Feb-20 10:05 33.678350 -117.862642 120 64ft 0kts
12-Feb-20 10:06 33.678350 -117.862642 120 64ft 0kts
12-Feb-20 10:07 33.678350 -117.862642 120 64ft 0kts
12-Feb-20 10:08 33.678350 -117.862642 120 64ft 0kts
12-Feb-20 10:09 33.678350 -117.862642 120 64ft 0kts
12-Feb-20 10:10 33.678507 -117.863184 87 64ft 2kts
12-Feb-20 10:11 33.678179 -117.863826 31 64ft 0kts
12-Feb-20 10:12 33.678180 -117.863825 31 64ft 0kts
12-Feb-20 10:13 33.678246 -117.863776 31 64ft 0kts
12-Feb-20 10:14 33.680554 -117.862981 299 64ft 13kts
12-Feb-20 10:15 33.681220 -117.864521 295 64ft 0kts
12-Feb-20 10:16 33.673810 -117.870038 207 64ft 129kts
12-Feb-20 10:17 33.627113 -117.890793 187 2402ft 212kts
12-Feb-20 10:18 33.559962 -117.906622 205 4414ft 269kts
12-Feb-20 10:19 33.507586 -117.968998 225 5967ft 266kts
12-Feb-20 10:20 33.461382 -118.039856 242 9131ft 276kts
12-Feb-20 10:21 33.421928 -118.121482 244 12132ft 292kts
12-Feb-20 10:22 33.423177 -118.216698 285 15140ft 299kts
12-Feb-20 10:23 33.448766 -118.322230 297 16068ft 359kts
12-Feb-20 10:24 33.495772 -118.429115 299 18916ft 368kts
12-Feb-20 10:25 33.551055 -118.534374 309 21414ft 379kts
12-Feb-20 10:26 33.616787 -118.636433 308 23181ft 393kts
12-Feb-20 10:27 33.694353 -118.727323 328 24216ft 395kts
12-Feb-20 10:28 33.792438 -118.790984 331 26104ft 406kts
12-Feb-20 10:29 33.893794 -118.854239 331 27747ft 416kts
12-Feb-20 10:30 33.997705 -118.919105 331 29239ft 424kts
12-Feb-20 10:31 34.103062 -118.985205 330 30821ft 424kts
12-Feb-20 10:32 34.194305 -119.072658 316 32481ft 418kts
12-Feb-20 10:33 34.276932 -119.170449 315 34038ft 413kts
12-Feb-20 10:34 34.358773 -119.268274 315 35359ft 412kts
12-Feb-20 10:35 34.440497 -119.366012 315 36182ft 416kts
12-Feb-20 10:36 34.522050 -119.463899 315 36188ft 410kts
12-Feb-20 10:37 34.603453 -119.562044 315 36186ft 411kts
12-Feb-20 10:38 34.684450 -119.660097 315 36188ft 411kts
12-Feb-20 10:39 34.765194 -119.758120 315 36184ft 411kts
12-Feb-20 10:40 34.846256 -119.856811 315 36178ft 412kts
12-Feb-20 10:41 34.926996 -119.955417 315 36178ft 412kts
12-Feb-20 10:42 35.008054 -120.054396 315 36176ft 409kts
12-Feb-20 10:43 35.088203 -120.152993 315 36169ft 410kts
12-Feb-20 10:44 35.168737 -120.251574 318 36166ft 409kts
12-Feb-20 10:45 35.259083 -120.336137 323 36166ft 409kts
12-Feb-20 10:46 35.350491 -120.419531 323 36165ft 409kts
12-Feb-20 10:47 35.441629 -120.503397 323 36168ft 409kts
12-Feb-20 10:48 35.532553 -120.586994 325 36174ft 409kts
12-Feb-20 10:49 35.628691 -120.662225 327 36179ft 409kts
12-Feb-20 10:50 35.724874 -120.737612 327 36056ft 411kts
12-Feb-20 10:51 35.821208 -120.813128 327 33679ft 406kts
12-Feb-20 10:52 35.916864 -120.888798 327 31281ft 413kts
12-Feb-20 10:53 36.011871 -120.964401 325 29322ft 394kts
12-Feb-20 10:54 36.097409 -121.045422 322 27117ft 380kts
12-Feb-20 10:55 36.179783 -121.124101 322 24968ft 368kts
12-Feb-20 10:56 36.259632 -121.200550 322 22893ft 358kts
12-Feb-20 10:57 36.337435 -121.275187 322 20884ft 351kts
12-Feb-20 10:58 36.414691 -121.349458 322 18588ft 348kts
12-Feb-20 10:59 36.488938 -121.420071 327 16422ft 320kts
12-Feb-20 11:00 36.567899 -121.459852 340 14746ft 294kts
12-Feb-20 11:01 36.643272 -121.491666 340 13215ft 279kts
12-Feb-20 11:02 36.715930 -121.522478 340 11822ft 273kts
12-Feb-20 11:03 36.787496 -121.552794 341 10622ft 270kts
12-Feb-20 11:04 36.858373 -121.582924 341 9424ft 268kts
12-Feb-20 11:05 36.928966 -121.613010 341 8220ft 266kts
12-Feb-20 11:06 36.998754 -121.642608 341 7019ft 263kts
12-Feb-20 11:07 37.067946 -121.672039 341 5815ft 260kts
12-Feb-20 11:08 37.135511 -121.700806 341 4619ft 251kts
12-Feb-20 11:09 37.193013 -121.743335 319 3747ft 228kts
12-Feb-20 11:10 37.236801 -121.792006 321 3205ft 190kts
12-Feb-20 11:11 37.276537 -121.835685 319 2239ft 178kts
12-Feb-20 11:12 37.311545 -121.873832 319 1286ft 155kts
12-Feb-20 11:13 37.343848 -121.909299 319 386ft 153kts
12-Feb-20 11:14 37.367626 -121.935310 320 70ft 33kts
12-Feb-20 11:15 37.371298 -121.934388 47 70ft 17kts
12-Feb-20 11:16 37.370776 -121.931190 47 70ft 0kts
12-Feb-20 11:17 37.370776 -121.931190 47 70ft 0kts

Navigation Log

Ident Type
Flight plan parsing failed, navigation log unavailable